Flight Track Log - Related Links

Times and Time Zones

All times are in EDT time to prevent confusion due to time zone crossing. See the SWA118 flight status page for this flight to view local times or setup timezone preferences in your user account.


Time Position Orientation Groundspeed Altitude Reporting Facility
EDT Latitude Longitude Course Direction KTS MPH feet Rate Location/Type
Sun 09:14:46 AM 39.7333 -86.2833 38° Northeast 159 183 1,500  Level Indianapolis TRACON
Sun 09:15:16 AM 39.7500 -86.2667 38° Northeast 168 193 2,300 2,148 Climbing Indianapolis TRACON
Sun 09:16:07 AM 39.7936 -86.2622 North 258 297 4,400 1,821 Climbing Indianapolis Center
Sun 09:17:08 AM 39.7983 -86.3514 274° West 262 302 5,700 1,951 Climbing Indianapolis Center
Sun 09:18:10 AM 39.7858 -86.4519 261° West 288 331 8,400 2,439 Climbing Indianapolis Center
Sun 09:19:11 AM 39.7761 -86.5589 263° West 299 344 10,700 2,508 Climbing Indianapolis Center
Sun 09:20:12 AM 39.7664 -86.6844 264° West 336 387 13,500 2,683 Climbing Indianapolis Center
Sun 09:21:14 AM 39.7575 -86.8147 265° West 355 409 16,200 2,732 Climbing Indianapolis Center
Sun 09:22:15 AM 39.7447 -86.9794 264° West 380 437 19,100 2,537 Climbing Indianapolis Center
Sun 09:23:17 AM 39.7344 -87.1244 265° West 398 458 21,400 2,098 Climbing Indianapolis Center
Sun 09:24:18 AM 39.7219 -87.2753 264° West 415 478 23,400 1,902 Climbing Indianapolis Center
Sun 09:25:20 AM 39.7089 -87.4322 264° West 436 502 25,300 1,805 Climbing Indianapolis Center
Sun 09:26:21 AM 39.6969 -87.5944 265° West 452 520 27,100 1,659 Climbing Indianapolis Center
Sun 09:27:23 AM 39.6822 -87.7608 263° West 462 532 28,700 1,512 Climbing Indianapolis Center
Sun 09:28:24 AM 39.6678 -87.9308 264° West 473 544 30,200 1,561 Climbing Indianapolis Center
Sun 09:29:26 AM 39.6672 -88.1444 270° West 495 570 31,900 1,756 Climbing Indianapolis Center
Sun 09:30:27 AM 39.6706 -88.3228 271° West 497 572 33,800 1,613 Climbing Indianapolis Center
Sun 09:31:25 AM 39.6736 -88.4647 272° West 495 570 35,100 1,525 Climbing Kansas City Center
Sun 09:32:25 AM 39.6761 -88.6411 271° West 491 565 36,800 1,450 Climbing Kansas City Center
Sun 09:33:25 AM 39.6781 -88.8122 271° West 479 551 38,000 585 Climbing Kansas City Center
Sun 09:34:28 AM 39.6808 -88.9844 271° West 477 549 38,000  Level Kansas City Center
Sun 09:35:28 AM 39.6819 -89.1908 270° West 476 548 38,000  Level Kansas City Center
Sun 09:36:29 AM 39.6836 -89.3469 271° West 478 550 38,000  Level Kansas City Center
Sun 09:37:30 AM 39.6842 -89.5200 270° West 481 554 38,000  Level Kansas City Center
Sun 09:38:31 AM 39.6861 -89.6953 271° West 486 559 38,000  Level Kansas City Center
Sun 09:39:35 AM 39.6869 -89.8703 270° West 488 562 38,000  Level Kansas City Center
Sun 09:40:36 AM 39.6872 -90.0814 270° West 489 563 38,000  Level Kansas City Center
Sun 09:41:38 AM 39.6878 -90.2583 270° West 492 566 38,000  Level Kansas City Center
Sun 09:42:38 AM 39.6872 -90.4369 270° West 496 571 38,000  Level Kansas City Center
Sun 09:43:39 AM 39.6869 -90.6119 270° West 493 567 38,000  Level Kansas City Center
Sun 09:44:40 AM 39.6861 -90.7883 270° West 492 566 38,000  Level Kansas City Center
Sun 09:45:42 AM 39.6850 -90.9647 270° West 491 565 38,000  Level Kansas City Center
Sun 09:46:44 AM 39.6844 -91.1400 270° West 490 564 38,000  Level Kansas City Center
Sun 09:47:44 AM 39.6825 -91.3278 269° West 492 566 38,000  Level Kansas City Center
Sun 09:48:46 AM 39.6803 -91.5047 269° West 494 568 38,000  Level Kansas City Center
Sun 09:49:47 AM 39.6778 -91.6831 269° West 495 570 38,000  Level Kansas City Center
Sun 09:50:47 AM 39.6747 -91.8614 269° West 497 572 38,000  Level Kansas City Center
Sun 09:51:48 AM 39.6733 -92.0728 270° West 492 566 38,000 -98 Level Kansas City Center
Sun 09:52:50 AM 39.6697 -92.2511 269° West 494 568 37,800 -1,610 Descending Kansas City Center
Sun 09:53:51 AM 39.6664 -92.4317 269° West 498 573 34,700 -3,421 Descending Kansas City Center
Sun 09:54:51 AM 39.6628 -92.6172 269° West 506 582 30,900 -3,504 Descending Kansas City Center
Sun 09:55:56 AM 39.6592 -92.8083 269° West 522 601 27,400 -3,120 Descending Kansas City Center
Sun 09:56:56 AM 39.6547 -92.9992 268° West 528 608 24,400 -2,656 Descending Kansas City Center
Sun 09:57:58 AM 39.6500 -93.1772 268° West 505 581 22,000 -2,361 Descending Kansas City Center
Sun 09:58:58 AM 39.6464 -93.3497 268° West 486 559 19,600 -2,250 Descending Kansas City Center
Sun 09:59:58 AM 39.6428 -93.5108 268° West 465 535 17,500 -2,459 Descending Kansas City Center
Sun 10:01:00 AM 39.6361 -93.6958 267° West 432 497 14,600 -2,381 Descending Kansas City Center
Sun 10:02:04 AM 39.6308 -93.8378 267° West 414 476 12,500 -1,728 Descending Kansas City Center
Sun 10:03:05 AM 39.5794 -93.9728 244° Southwest 377 434 11,000 -1,279 Descending Kansas City Center
Sun 10:04:06 AM 39.5300 -94.0847 240° Southwest 372 428 9,900 -634 Descending Kansas City Center
Sun 10:05:08 AM 39.5056 -94.1958 254° West 326 375 9,700 -850 Descending Kansas City Center
Sun 10:06:06 AM 39.4758 -94.3133 252° West 308 354 8,200 -1,426 Descending Kansas City Center
Sun 10:07:10 AM 39.4528 -94.4089 253° West 292 336 6,800 -1,296 Descending Kansas City Center
Sun 10:08:11 AM 39.4292 -94.5039 252° West 290 334 5,500 -1,033 Descending Kansas City Center
Sun 10:09:12 AM 39.4108 -94.6086 257° West 262 302 4,700 -744 Descending Kansas City Center
Sun 10:10:12 AM 39.4047 -94.6678 262° West 181 208 4,000 -1,180 Descending Kansas City Center
Sun 10:11:14 AM 39.3603 -94.6864 198° South 151 174 2,300 -1,306 Descending Kansas City Center
Sun 10:12:16 AM 39.3244 -94.6964 192° South 139 160 1,300 -689 Descending Kansas City Center
Sun 10:13:16 AM 39.2856 -94.7089 194° South 140 161 900 -400 Descending Kansas City Center
Sun 10:15:00 AM 39.2833 -94.7000 270° West  Level FlightAware Approximate

Login

Don't have an account? Register now (free) for customized features, flight alerts, and more!